sensor_id;sensor_type;location;lat;lon;timestamp;P1;durP1;ratioP1;P2;durP2;ratioP2
22675;SDS011;12521;43.310;21.876;2023-06-01T00:00:19;6.0;;;4.0;;
22675;SDS011;12521;43.310;21.876;2023-06-01T00:04:55;6.0;;;5.0;;
22675;SDS011;12521;43.310;21.876;2023-06-01T00:09:32;6.0;;;5.0;;
22675;SDS011;12521;43.310;21.876;2023-06-01T00:14:09;6.0;;;5.0;;
22675;SDS011;12521;43.310;21.876;2023-06-01T00:18:47;6.0;;;5.0;;
22675;SDS011;12521;43.310;21.876;2023-06-01T00:23:25;7.0;;;5.0;;
22675;SDS011;12521;43.310;21.876;2023-06-01T00:28:02;7.0;;;5.0;;
22675;SDS011;12521;43.310;21.876;2023-06-01T00:32:39;6.0;;;6.0;;
22675;SDS011;12521;43.310;21.876;2023-06-01T00:37:16;6.0;;;6.0;;
22675;SDS011;12521;43.310;21.876;2023-06-01T00:41:53;6.0;;;6.0;;
22675;SDS011;12521;43.310;21.876;2023-06-01T00:46:31;6.0;;;6.0;;
22675;SDS011;12521;43.310;21.876;2023-06-01T00:51:08;8.0;;;6.0;;
22675;SDS011;12521;43.310;21.876;2023-06-01T00:55:46;8.0;;;6.0;;
22675;SDS011;12521;43.310;21.876;2023-06-01T01:00:24;8.0;;;6.0;;
22675;SDS011;12521;43.310;21.876;2023-06-01T01:05:06;10.0;;;6.0;;
22675;SDS011;12521;43.310;21.876;2023-06-01T01:09:49;10.0;;;6.0;;
22675;SDS011;12521;43.310;21.876;2023-06-01T01:15:06;10.0;;;6.0;;
22675;SDS011;12521;43.310;21.876;2023-06-01T01:20:14;10.0;;;6.0;;
22675;SDS011;12521;43.310;21.876;2023-06-01T01:35:32;7.0;;;7.0;;
22675;SDS011;12521;43.310;21.876;2023-06-01T01:40:12;7.0;;;7.0;;
22675;SDS011;12521;43.310;21.876;2023-06-01T01:44:49;7.0;;;7.0;;
22675;SDS011;12521;43.310;21.876;2023-06-01T01:49:45;7.0;;;7.0;;
22675;SDS011;12521;43.310;21.876;2023-06-01T01:54:29;8.0;;;6.0;;
22675;SDS011;12521;43.310;21.876;2023-06-01T01:59:12;8.0;;;6.0;;
22675;SDS011;12521;43.310;21.876;2023-06-01T02:04:03;9.0;;;6.0;;
22675;SDS011;12521;43.310;21.876;2023-06-01T02:08:40;9.0;;;6.0;;
22675;SDS011;12521;43.310;21.876;2023-06-01T02:13:17;7.0;;;6.0;;
22675;SDS011;12521;43.310;21.876;2023-06-01T02:17:53;7.0;;;6.0;;
22675;SDS011;12521;43.310;21.876;2023-06-01T02:22:30;5.0;;;5.0;;
22675;SDS011;12521;43.310;21.876;2023-06-01T02:27:07;5.0;;;5.0;;
22675;SDS011;12521;43.310;21.876;2023-06-01T02:31:43;6.0;;;6.0;;
22675;SDS011;12521;43.310;21.876;2023-06-01T02:36:19;6.0;;;6.0;;
22675;SDS011;12521;43.310;21.876;2023-06-01T02:40:56;8.0;;;6.0;;
22675;SDS011;12521;43.310;21.876;2023-06-01T02:45:32;8.0;;;6.0;;
22675;SDS011;12521;43.310;21.876;2023-06-01T02:50:10;8.0;;;6.0;;
22675;SDS011;12521;43.310;21.876;2023-06-01T02:54:47;9.0;;;6.0;;
22675;SDS011;12521;43.310;21.876;2023-06-01T02:59:24;9.0;;;6.0;;
22675;SDS011;12521;43.310;21.876;2023-06-01T03:04:01;10.0;;;7.0;;
22675;SDS011;12521;43.310;21.876;2023-06-01T03:08:39;10.0;;;7.0;;
22675;SDS011;12521;43.310;21.876;2023-06-01T03:13:16;10.0;;;8.0;;
22675;SDS011;12521;43.310;21.876;2023-06-01T03:17:53;10.0;;;8.0;;
22675;SDS011;12521;43.310;21.876;2023-06-01T03:22:30;11.0;;;8.0;;
22675;SDS011;12521;43.310;21.876;2023-06-01T03:27:07;11.0;;;8.0;;
22675;SDS011;12521;43.310;21.876;2023-06-01T03:31:44;10.0;;;8.0;;
22675;SDS011;12521;43.310;21.876;2023-06-01T03:36:21;10.0;;;8.0;;
22675;SDS011;12521;43.310;21.876;2023-06-01T03:40:57;9.0;;;7.0;;
22675;SDS011;12521;43.310;21.876;2023-06-01T03:45:34;9.0;;;7.0;;
22675;SDS011;12521;43.310;21.876;2023-06-01T03:50:11;9.0;;;7.0;;
22675;SDS011;12521;43.310;21.876;2023-06-01T03:54:48;10.0;;;8.0;;
22675;SDS011;12521;43.310;21.876;2023-06-01T03:59:24;10.0;;;8.0;;
22675;SDS011;12521;43.310;21.876;2023-06-01T04:04:01;11.0;;;8.0;;
22675;SDS011;12521;43.310;21.876;2023-06-01T04:08:38;11.0;;;8.0;;
22675;SDS011;12521;43.310;21.876;2023-06-01T04:13:14;12.0;;;10.0;;
22675;SDS011;12521;43.310;21.876;2023-06-01T04:17:50;12.0;;;10.0;;
22675;SDS011;12521;43.310;21.876;2023-06-01T04:22:27;14.0;;;11.0;;
22675;SDS011;12521;43.310;21.876;2023-06-01T04:27:05;14.0;;;11.0;;
22675;SDS011;12521;43.310;21.876;2023-06-01T04:31:42;14.0;;;12.0;;
22675;SDS011;12521;43.310;21.876;2023-06-01T04:36:19;14.0;;;12.0;;
22675;SDS011;12521;43.310;21.876;2023-06-01T04:40:56;15.0;;;14.0;;
22675;SDS011;12521;43.310;21.876;2023-06-01T04:45:32;15.0;;;14.0;;
22675;SDS011;12521;43.310;21.876;2023-06-01T04:50:13;15.0;;;14.0;;
22675;SDS011;12521;43.310;21.876;2023-06-01T04:54:50;13.0;;;12.0;;
22675;SDS011;12521;43.310;21.876;2023-06-01T04:59:26;13.0;;;12.0;;
22675;SDS011;12521;43.310;21.876;2023-06-01T05:04:02;11.0;;;10.0;;
22675;SDS011;12521;43.310;21.876;2023-06-01T05:08:41;11.0;;;10.0;;
22675;SDS011;12521;43.310;21.876;2023-06-01T05:13:18;12.0;;;10.0;;
22675;SDS011;12521;43.310;21.876;2023-06-01T05:17:54;12.0;;;10.0;;
22675;SDS011;12521;43.310;21.876;2023-06-01T05:22:30;12.0;;;11.0;;
22675;SDS011;12521;43.310;21.876;2023-06-01T05:27:07;12.0;;;11.0;;
22675;SDS011;12521;43.310;21.876;2023-06-01T05:31:43;13.0;;;10.0;;
22675;SDS011;12521;43.310;21.876;2023-06-01T05:36:25;13.0;;;10.0;;
22675;SDS011;12521;43.310;21.876;2023-06-01T05:41:02;14.0;;;10.0;;
22675;SDS011;12521;43.310;21.876;2023-06-01T05:45:39;14.0;;;10.0;;
22675;SDS011;12521;43.310;21.876;2023-06-01T05:50:17;14.0;;;10.0;;
22675;SDS011;12521;43.310;21.876;2023-06-01T05:54:54;14.0;;;10.0;;
22675;SDS011;12521;43.310;21.876;2023-06-01T05:59:31;14.0;;;10.0;;
22675;SDS011;12521;43.310;21.876;2023-06-01T06:04:07;13.0;;;10.0;;
22675;SDS011;12521;43.310;21.876;2023-06-01T06:08:44;13.0;;;10.0;;
22675;SDS011;12521;43.310;21.876;2023-06-01T06:13:21;12.0;;;9.0;;
22675;SDS011;12521;43.310;21.876;2023-06-01T06:17:58;12.0;;;9.0;;
22675;SDS011;12521;43.310;21.876;2023-06-01T06:22:35;10.0;;;8.0;;
22675;SDS011;12521;43.310;21.876;2023-06-01T06:27:12;10.0;;;8.0;;
22675;SDS011;12521;43.310;21.876;2023-06-01T06:31:49;10.0;;;8.0;;
22675;SDS011;12521;43.310;21.876;2023-06-01T06:36:25;10.0;;;8.0;;
22675;SDS011;12521;43.310;21.876;2023-06-01T06:41:02;11.0;;;8.0;;
22675;SDS011;12521;43.310;21.876;2023-06-01T06:45:39;11.0;;;8.0;;
22675;SDS011;12521;43.310;21.876;2023-06-01T06:50:16;11.0;;;8.0;;
22675;SDS011;12521;43.310;21.876;2023-06-01T06:54:52;11.0;;;8.0;;
22675;SDS011;12521;43.310;21.876;2023-06-01T06:59:29;11.0;;;8.0;;
22675;SDS011;12521;43.310;21.876;2023-06-01T07:04:05;11.0;;;8.0;;
22675;SDS011;12521;43.310;21.876;2023-06-01T07:08:42;11.0;;;8.0;;
22675;SDS011;12521;43.310;21.876;2023-06-01T07:13:19;10.0;;;8.0;;
22675;SDS011;12521;43.310;21.876;2023-06-01T07:17:55;10.0;;;8.0;;
22675;SDS011;12521;43.310;21.876;2023-06-01T07:22:32;10.0;;;8.0;;
22675;SDS011;12521;43.310;21.876;2023-06-01T07:27:09;10.0;;;8.0;;
22675;SDS011;12521;43.310;21.876;2023-06-01T07:31:46;12.0;;;8.0;;
22675;SDS011;12521;43.310;21.876;2023-06-01T07:36:23;12.0;;;8.0;;
22675;SDS011;12521;43.310;21.876;2023-06-01T07:41:00;12.0;;;8.0;;
22675;SDS011;12521;43.310;21.876;2023-06-01T07:45:36;14.0;;;9.0;;
22675;SDS011;12521;43.310;21.876;2023-06-01T07:50:15;14.0;;;9.0;;
22675;SDS011;12521;43.310;21.876;2023-06-01T07:54:52;14.0;;;10.0;;
22675;SDS011;12521;43.310;21.876;2023-06-01T07:59:29;14.0;;;10.0;;
22675;SDS011;12521;43.310;21.876;2023-06-01T08:04:05;15.0;;;11.0;;
22675;SDS011;12521;43.310;21.876;2023-06-01T08:08:42;15.0;;;11.0;;
22675;SDS011;12521;43.310;21.876;2023-06-01T08:13:18;14.0;;;11.0;;
22675;SDS011;12521;43.310;21.876;2023-06-01T08:17:56;14.0;;;11.0;;
22675;SDS011;12521;43.310;21.876;2023-06-01T08:22:33;14.0;;;11.0;;
22675;SDS011;12521;43.310;21.876;2023-06-01T08:27:22;14.0;;;11.0;;
22675;SDS011;12521;43.310;21.876;2023-06-01T08:32:00;13.0;;;11.0;;
22675;SDS011;12521;43.310;21.876;2023-06-01T08:36:36;13.0;;;11.0;;
22675;SDS011;12521;43.310;21.876;2023-06-01T08:41:32;12.0;;;11.0;;
22675;SDS011;12521;43.310;21.876;2023-06-01T08:46:34;12.0;;;11.0;;
22675;SDS011;12521;43.310;21.876;2023-06-01T08:51:15;10.0;;;10.0;;
22675;SDS011;12521;43.310;21.876;2023-06-01T08:55:56;10.0;;;10.0;;
22675;SDS011;12521;43.310;21.876;2023-06-01T09:00:35;10.0;;;10.0;;
22675;SDS011;12521;43.310;21.876;2023-06-01T09:05:14;9.0;;;8.0;;
22675;SDS011;12521;43.310;21.876;2023-06-01T09:09:51;9.0;;;8.0;;
22675;SDS011;12521;43.310;21.876;2023-06-01T09:14:28;12.0;;;8.0;;
22675;SDS011;12521;43.310;21.876;2023-06-01T09:19:04;12.0;;;8.0;;
22675;SDS011;12521;43.310;21.876;2023-06-01T09:23:41;15.0;;;9.0;;
22675;SDS011;12521;43.310;21.876;2023-06-01T09:28:17;15.0;;;9.0;;
22675;SDS011;12521;43.310;21.876;2023-06-01T09:33:12;14.0;;;9.0;;
22675;SDS011;12521;43.310;21.876;2023-06-01T09:37:57;14.0;;;9.0;;
22675;SDS011;12521;43.310;21.876;2023-06-01T09:42:34;12.0;;;9.0;;
22675;SDS011;12521;43.310;21.876;2023-06-01T09:47:12;12.0;;;9.0;;
22675;SDS011;12521;43.310;21.876;2023-06-01T09:51:53;10.0;;;8.0;;
22675;SDS011;12521;43.310;21.876;2023-06-01T09:56:49;10.0;;;8.0;;
22675;SDS011;12521;43.310;21.876;2023-06-01T10:01:31;9.0;;;8.0;;
22675;SDS011;12521;43.310;21.876;2023-06-01T10:06:12;9.0;;;8.0;;
22675;SDS011;12521;43.310;21.876;2023-06-01T10:10:51;9.0;;;8.0;;
22675;SDS011;12521;43.310;21.876;2023-06-01T10:15:28;10.0;;;8.0;;
22675;SDS011;12521;43.310;21.876;2023-06-01T10:20:09;10.0;;;8.0;;
22675;SDS011;12521;43.310;21.876;2023-06-01T10:24:47;10.0;;;9.0;;
22675;SDS011;12521;43.310;21.876;2023-06-01T10:29:29;10.0;;;9.0;;
22675;SDS011;12521;43.310;21.876;2023-06-01T10:34:12;11.0;;;8.0;;
22675;SDS011;12521;43.310;21.876;2023-06-01T10:38:49;11.0;;;8.0;;
22675;SDS011;12521;43.310;21.876;2023-06-01T10:43:42;12.0;;;8.0;;
22675;SDS011;12521;43.310;21.876;2023-06-01T10:48:55;12.0;;;8.0;;
22675;SDS011;12521;43.310;21.876;2023-06-01T10:53:33;11.0;;;8.0;;
22675;SDS011;12521;43.310;21.876;2023-06-01T10:58:26;11.0;;;8.0;;
22675;SDS011;12521;43.310;21.876;2023-06-01T11:03:05;10.0;;;7.0;;
22675;SDS011;12521;43.310;21.876;2023-06-01T11:07:42;10.0;;;7.0;;
22675;SDS011;12521;43.310;21.876;2023-06-01T11:12:19;10.0;;;7.0;;
22675;SDS011;12521;43.310;21.876;2023-06-01T11:17:29;10.0;;;7.0;;
22675;SDS011;12521;43.310;21.876;2023-06-01T11:22:08;9.0;;;7.0;;
22675;SDS011;12521;43.310;21.876;2023-06-01T11:26:50;9.0;;;7.0;;
22675;SDS011;12521;43.310;21.876;2023-06-01T11:31:39;10.0;;;8.0;;
22675;SDS011;12521;43.310;21.876;2023-06-01T11:36:23;10.0;;;8.0;;
22675;SDS011;12521;43.310;21.876;2023-06-01T11:41:00;10.0;;;8.0;;
22675;SDS011;12521;43.310;21.876;2023-06-01T11:45:38;11.0;;;9.0;;
22675;SDS011;12521;43.310;21.876;2023-06-01T11:50:24;11.0;;;9.0;;
22675;SDS011;12521;43.310;21.876;2023-06-01T11:55:04;44.0;;;39.0;;
22675;SDS011;12521;43.310;21.876;2023-06-01T11:59:49;44.0;;;39.0;;
22675;SDS011;12521;43.310;21.876;2023-06-01T12:04:26;77.0;;;69.0;;
22675;SDS011;12521;43.310;21.876;2023-06-01T12:09:03;77.0;;;69.0;;
22675;SDS011;12521;43.310;21.876;2023-06-01T12:13:40;45.0;;;38.0;;
22675;SDS011;12521;43.310;21.876;2023-06-01T12:18:29;45.0;;;38.0;;
22675;SDS011;12521;43.310;21.876;2023-06-01T12:23:17;13.0;;;8.0;;
22675;SDS011;12521;43.310;21.876;2023-06-01T12:28:06;13.0;;;8.0;;
22675;SDS011;12521;43.310;21.876;2023-06-01T12:32:44;10.0;;;7.0;;
22675;SDS011;12521;43.310;21.876;2023-06-01T12:37:21;10.0;;;7.0;;
22675;SDS011;12521;43.310;21.876;2023-06-01T12:41:57;6.0;;;6.0;;
22675;SDS011;12521;43.310;21.876;2023-06-01T12:46:34;6.0;;;6.0;;
22675;SDS011;12521;43.310;21.876;2023-06-01T12:51:11;6.0;;;6.0;;
22675;SDS011;12521;43.310;21.876;2023-06-01T12:55:47;6.0;;;6.0;;
22675;SDS011;12521;43.310;21.876;2023-06-01T13:00:24;6.0;;;6.0;;
22675;SDS011;12521;43.310;21.876;2023-06-01T13:05:01;7.0;;;6.0;;
22675;SDS011;12521;43.310;21.876;2023-06-01T13:09:38;7.0;;;6.0;;
22675;SDS011;12521;43.310;21.876;2023-06-01T13:14:14;6.0;;;6.0;;
22675;SDS011;12521;43.310;21.876;2023-06-01T13:18:51;6.0;;;6.0;;
22675;SDS011;12521;43.310;21.876;2023-06-01T13:23:27;6.0;;;6.0;;
22675;SDS011;12521;43.310;21.876;2023-06-01T13:28:04;6.0;;;6.0;;
22675;SDS011;12521;43.310;21.876;2023-06-01T13:32:42;7.0;;;6.0;;
22675;SDS011;12521;43.310;21.876;2023-06-01T13:37:20;7.0;;;6.0;;
22675;SDS011;12521;43.310;21.876;2023-06-01T13:41:58;8.0;;;6.0;;
22675;SDS011;12521;43.310;21.876;2023-06-01T13:46:34;8.0;;;6.0;;
22675;SDS011;12521;43.310;21.876;2023-06-01T13:51:11;8.0;;;6.0;;
22675;SDS011;12521;43.310;21.876;2023-06-01T13:55:49;8.0;;;7.0;;
22675;SDS011;12521;43.310;21.876;2023-06-01T14:00:26;8.0;;;7.0;;
22675;SDS011;12521;43.310;21.876;2023-06-01T14:05:05;9.0;;;8.0;;
22675;SDS011;12521;43.310;21.876;2023-06-01T14:09:44;9.0;;;8.0;;
22675;SDS011;12521;43.310;21.876;2023-06-01T14:14:21;9.0;;;8.0;;
22675;SDS011;12521;43.310;21.876;2023-06-01T14:18:57;9.0;;;8.0;;
22675;SDS011;12521;43.310;21.876;2023-06-01T14:23:34;9.0;;;7.0;;
22675;SDS011;12521;43.310;21.876;2023-06-01T14:28:11;9.0;;;7.0;;
22675;SDS011;12521;43.310;21.876;2023-06-01T14:32:47;9.0;;;7.0;;
22675;SDS011;12521;43.310;21.876;2023-06-01T14:37:24;9.0;;;7.0;;
22675;SDS011;12521;43.310;21.876;2023-06-01T14:42:01;9.0;;;7.0;;
22675;SDS011;12521;43.310;21.876;2023-06-01T14:46:37;9.0;;;7.0;;
22675;SDS011;12521;43.310;21.876;2023-06-01T14:51:14;9.0;;;7.0;;
22675;SDS011;12521;43.310;21.876;2023-06-01T14:55:50;8.0;;;6.0;;
22675;SDS011;12521;43.310;21.876;2023-06-01T15:00:27;8.0;;;6.0;;
22675;SDS011;12521;43.310;21.876;2023-06-01T15:05:05;8.0;;;6.0;;
22675;SDS011;12521;43.310;21.876;2023-06-01T15:09:43;8.0;;;6.0;;
22675;SDS011;12521;43.310;21.876;2023-06-01T15:14:19;8.0;;;6.0;;
22675;SDS011;12521;43.310;21.876;2023-06-01T15:18:56;8.0;;;6.0;;
22675;SDS011;12521;43.310;21.876;2023-06-01T15:23:32;7.0;;;5.0;;
22675;SDS011;12521;43.310;21.876;2023-06-01T15:28:09;7.0;;;5.0;;
22675;SDS011;12521;43.310;21.876;2023-06-01T15:32:45;8.0;;;6.0;;
22675;SDS011;12521;43.310;21.876;2023-06-01T15:37:22;8.0;;;6.0;;
22675;SDS011;12521;43.310;21.876;2023-06-01T15:41:58;8.0;;;6.0;;
22675;SDS011;12521;43.310;21.876;2023-06-01T15:46:35;8.0;;;6.0;;
22675;SDS011;12521;43.310;21.876;2023-06-01T15:51:11;8.0;;;6.0;;
22675;SDS011;12521;43.310;21.876;2023-06-01T15:55:50;8.0;;;7.0;;
22675;SDS011;12521;43.310;21.876;2023-06-01T16:00:26;8.0;;;7.0;;
22675;SDS011;12521;43.310;21.876;2023-06-01T16:05:04;9.0;;;8.0;;
22675;SDS011;12521;43.310;21.876;2023-06-01T16:09:41;9.0;;;8.0;;
22675;SDS011;12521;43.310;21.876;2023-06-01T16:14:18;9.0;;;7.0;;
22675;SDS011;12521;43.310;21.876;2023-06-01T16:18:55;9.0;;;7.0;;
22675;SDS011;12521;43.310;21.876;2023-06-01T16:23:32;9.0;;;6.0;;
22675;SDS011;12521;43.310;21.876;2023-06-01T16:28:09;9.0;;;6.0;;
22675;SDS011;12521;43.310;21.876;2023-06-01T16:32:46;8.0;;;6.0;;
22675;SDS011;12521;43.310;21.876;2023-06-01T16:37:23;8.0;;;6.0;;
22675;SDS011;12521;43.310;21.876;2023-06-01T16:42:00;8.0;;;7.0;;
22675;SDS011;12521;43.310;21.876;2023-06-01T16:46:37;8.0;;;7.0;;
22675;SDS011;12521;43.310;21.876;2023-06-01T16:51:13;8.0;;;7.0;;
22675;SDS011;12521;43.310;21.876;2023-06-01T16:55:50;8.0;;;6.0;;
22675;SDS011;12521;43.310;21.876;2023-06-01T17:00:27;8.0;;;6.0;;
22675;SDS011;12521;43.310;21.876;2023-06-01T17:05:06;9.0;;;6.0;;
22675;SDS011;12521;43.310;21.876;2023-06-01T17:09:43;9.0;;;6.0;;
22675;SDS011;12521;43.310;21.876;2023-06-01T17:14:20;8.0;;;6.0;;
22675;SDS011;12521;43.310;21.876;2023-06-01T17:18:56;8.0;;;6.0;;
22675;SDS011;12521;43.310;21.876;2023-06-01T17:23:33;6.0;;;5.0;;
22675;SDS011;12521;43.310;21.876;2023-06-01T17:28:09;6.0;;;5.0;;
22675;SDS011;12521;43.310;21.876;2023-06-01T17:32:45;6.0;;;6.0;;
22675;SDS011;12521;43.310;21.876;2023-06-01T17:37:22;6.0;;;6.0;;
22675;SDS011;12521;43.310;21.876;2023-06-01T17:41:58;7.0;;;6.0;;
22675;SDS011;12521;43.310;21.876;2023-06-01T17:46:34;7.0;;;6.0;;
22675;SDS011;12521;43.310;21.876;2023-06-01T17:51:11;7.0;;;6.0;;
22675;SDS011;12521;43.310;21.876;2023-06-01T17:55:47;6.0;;;6.0;;
22675;SDS011;12521;43.310;21.876;2023-06-01T18:00:24;6.0;;;6.0;;
22675;SDS011;12521;43.310;21.876;2023-06-01T18:05:01;6.0;;;6.0;;
22675;SDS011;12521;43.310;21.876;2023-06-01T18:09:38;6.0;;;6.0;;
22675;SDS011;12521;43.310;21.876;2023-06-01T18:14:14;6.0;;;6.0;;
22675;SDS011;12521;43.310;21.876;2023-06-01T18:18:51;6.0;;;6.0;;
22675;SDS011;12521;43.310;21.876;2023-06-01T18:23:28;6.0;;;5.0;;
22675;SDS011;12521;43.310;21.876;2023-06-01T18:28:04;6.0;;;5.0;;
22675;SDS011;12521;43.310;21.876;2023-06-01T18:32:41;8.0;;;6.0;;
22675;SDS011;12521;43.310;21.876;2023-06-01T18:37:17;8.0;;;6.0;;
22675;SDS011;12521;43.310;21.876;2023-06-01T18:41:53;9.0;;;8.0;;
22675;SDS011;12521;43.310;21.876;2023-06-01T18:46:30;9.0;;;8.0;;
22675;SDS011;12521;43.310;21.876;2023-06-01T18:51:08;9.0;;;8.0;;
22675;SDS011;12521;43.310;21.876;2023-06-01T18:55:48;9.0;;;8.0;;
22675;SDS011;12521;43.310;21.876;2023-06-01T19:00:25;9.0;;;8.0;;
22675;SDS011;12521;43.310;21.876;2023-06-01T19:05:05;9.0;;;7.0;;
22675;SDS011;12521;43.310;21.876;2023-06-01T19:09:44;9.0;;;7.0;;
22675;SDS011;12521;43.310;21.876;2023-06-01T19:14:21;8.0;;;6.0;;
22675;SDS011;12521;43.310;21.876;2023-06-01T19:18:59;8.0;;;6.0;;
22675;SDS011;12521;43.310;21.876;2023-06-01T19:23:36;7.0;;;6.0;;
22675;SDS011;12521;43.310;21.876;2023-06-01T19:28:20;7.0;;;6.0;;
22675;SDS011;12521;43.310;21.876;2023-06-01T19:32:57;8.0;;;6.0;;
22675;SDS011;12521;43.310;21.876;2023-06-01T19:37:34;8.0;;;6.0;;
22675;SDS011;12521;43.310;21.876;2023-06-01T19:42:43;8.0;;;6.0;;
22675;SDS011;12521;43.310;21.876;2023-06-01T19:47:46;8.0;;;6.0;;
22675;SDS011;12521;43.310;21.876;2023-06-01T19:52:41;8.0;;;6.0;;
22675;SDS011;12521;43.310;21.876;2023-06-01T19:57:18;8.0;;;6.0;;
22675;SDS011;12521;43.310;21.876;2023-06-01T20:02:00;9.0;;;7.0;;
22675;SDS011;12521;43.310;21.876;2023-06-01T20:06:45;9.0;;;7.0;;
22675;SDS011;12521;43.310;21.876;2023-06-01T20:11:22;9.0;;;7.0;;
22675;SDS011;12521;43.310;21.876;2023-06-01T20:15:58;8.0;;;7.0;;
22675;SDS011;12521;43.310;21.876;2023-06-01T20:20:40;8.0;;;7.0;;
22675;SDS011;12521;43.310;21.876;2023-06-01T20:25:26;7.0;;;7.0;;
22675;SDS011;12521;43.310;21.876;2023-06-01T20:31:00;7.0;;;7.0;;
22675;SDS011;12521;43.310;21.876;2023-06-01T20:35:41;8.0;;;6.0;;
22675;SDS011;12521;43.310;21.876;2023-06-01T20:41:11;8.0;;;6.0;;
22675;SDS011;12521;43.310;21.876;2023-06-01T20:46:01;8.0;;;6.0;;
22675;SDS011;12521;43.310;21.876;2023-06-01T20:50:40;8.0;;;6.0;;
22675;SDS011;12521;43.310;21.876;2023-06-01T20:55:17;8.0;;;7.0;;
22675;SDS011;12521;43.310;21.876;2023-06-01T20:59:53;8.0;;;7.0;;
22675;SDS011;12521;43.310;21.876;2023-06-01T21:04:36;9.0;;;8.0;;
22675;SDS011;12521;43.310;21.876;2023-06-01T21:09:13;9.0;;;8.0;;
22675;SDS011;12521;43.310;21.876;2023-06-01T21:13:51;14.0;;;11.0;;
22675;SDS011;12521;43.310;21.876;2023-06-01T21:18:29;14.0;;;11.0;;
22675;SDS011;12521;43.310;21.876;2023-06-01T21:23:05;19.0;;;14.0;;
22675;SDS011;12521;43.310;21.876;2023-06-01T21:27:42;19.0;;;14.0;;
22675;SDS011;12521;43.310;21.876;2023-06-01T21:32:18;14.0;;;10.0;;
22675;SDS011;12521;43.310;21.876;2023-06-01T21:36:55;14.0;;;10.0;;
22675;SDS011;12521;43.310;21.876;2023-06-01T21:41:32;14.0;;;10.0;;
22675;SDS011;12521;43.310;21.876;2023-06-01T21:46:09;9.0;;;7.0;;
22675;SDS011;12521;43.310;21.876;2023-06-01T21:50:47;9.0;;;7.0;;
22675;SDS011;12521;43.310;21.876;2023-06-01T21:55:28;8.0;;;6.0;;
22675;SDS011;12521;43.310;21.876;2023-06-01T22:00:11;8.0;;;6.0;;
22675;SDS011;12521;43.310;21.876;2023-06-01T22:04:49;7.0;;;6.0;;
22675;SDS011;12521;43.310;21.876;2023-06-01T22:09:26;7.0;;;6.0;;
22675;SDS011;12521;43.310;21.876;2023-06-01T22:14:03;8.0;;;6.0;;
22675;SDS011;12521;43.310;21.876;2023-06-01T22:18:40;8.0;;;6.0;;
22675;SDS011;12521;43.310;21.876;2023-06-01T22:23:17;8.0;;;6.0;;
22675;SDS011;12521;43.310;21.876;2023-06-01T22:27:54;8.0;;;6.0;;
22675;SDS011;12521;43.310;21.876;2023-06-01T22:32:30;8.0;;;6.0;;
22675;SDS011;12521;43.310;21.876;2023-06-01T22:37:07;8.0;;;6.0;;
22675;SDS011;12521;43.310;21.876;2023-06-01T22:41:44;8.0;;;6.0;;
22675;SDS011;12521;43.310;21.876;2023-06-01T22:46:20;8.0;;;6.0;;
22675;SDS011;12521;43.310;21.876;2023-06-01T22:50:57;8.0;;;6.0;;
22675;SDS011;12521;43.310;21.876;2023-06-01T22:55:33;8.0;;;6.0;;
22675;SDS011;12521;43.310;21.876;2023-06-01T23:00:12;8.0;;;6.0;;
22675;SDS011;12521;43.310;21.876;2023-06-01T23:04:49;9.0;;;7.0;;
22675;SDS011;12521;43.310;21.876;2023-06-01T23:09:25;9.0;;;7.0;;
22675;SDS011;12521;43.310;21.876;2023-06-01T23:14:03;8.0;;;6.0;;
22675;SDS011;12521;43.310;21.876;2023-06-01T23:18:40;8.0;;;6.0;;
22675;SDS011;12521;43.310;21.876;2023-06-01T23:23:17;6.0;;;5.0;;
22675;SDS011;12521;43.310;21.876;2023-06-01T23:27:54;6.0;;;5.0;;
22675;SDS011;12521;43.310;21.876;2023-06-01T23:32:30;7.0;;;6.0;;
22675;SDS011;12521;43.310;21.876;2023-06-01T23:37:07;7.0;;;6.0;;
22675;SDS011;12521;43.310;21.876;2023-06-01T23:41:44;7.0;;;6.0;;
22675;SDS011;12521;43.310;21.876;2023-06-01T23:46:21;8.0;;;7.0;;
22675;SDS011;12521;43.310;21.876;2023-06-01T23:50:59;8.0;;;7.0;;
22675;SDS011;12521;43.310;21.876;2023-06-01T23:55:35;8.0;;;6.0;;
